Ripon, Wisconsin
Current Conditions -  °F | °C
As of 5:53 AM on Saturday 25 Oct 2014 (Local Time) from KOSH Reporting Station
Haze Haze  
Wind Chill: 12°   Ceiling: Unl
Heat Index: 12°   Visibility: 4mi
Dew Point: 12°   Wind: 7mph
Humidity: 97%   Direction: 260°W
Pressure: 29.84"   Gusts: NA
Location:  43.85°N, 88.84°W
Report Text: KOSH 251053Z 26006KT 4SM BR CLR 12/12 A2984 RMK AO2 SLP105 T01220117
Loading
Personal Weather Stations






























Interactive Weather Map New forecast layout! Learn more

10-Day Weather Forecast

Advertisements
Track Severe Weather on mobile